createdAt,value
2023-04-05T16:00:45.567Z,15.85
2023-04-05T16:00:56.079Z,15.88
2023-04-05T16:01:06.378Z,15.81
2023-04-05T16:01:16.357Z,15.80
2023-04-05T16:01:26.429Z,15.78
2023-04-05T16:01:36.694Z,15.76
2023-04-05T16:01:47.180Z,15.70
2023-04-05T16:02:01.810Z,15.64
2023-04-05T16:02:09.653Z,15.55
2023-04-05T16:02:22.374Z,15.55
2023-04-05T16:02:28.563Z,15.49
2023-04-05T16:02:38.759Z,15.46
2023-04-05T16:02:48.784Z,15.40
2023-04-05T16:03:08.947Z,15.33
2023-04-05T16:03:19.180Z,15.31
2023-04-05T16:03:29.109Z,15.28
2023-04-05T16:03:39.609Z,15.23
2023-04-05T16:03:49.429Z,15.23
2023-04-05T16:03:59.713Z,15.22
2023-04-05T16:04:09.791Z,15.23
2023-04-05T16:04:19.944Z,15.23
2023-04-05T16:04:30.293Z,15.23
2023-04-05T16:04:40.526Z,15.23
2023-04-05T16:04:50.458Z,15.25
2023-04-05T16:05:01.460Z,15.27
2023-04-05T16:05:10.589Z,15.28
2023-04-05T16:05:20.663Z,15.30
2023-04-05T16:05:30.646Z,15.31
2023-04-05T16:05:40.717Z,15.31
2023-04-05T16:05:51.381Z,15.31
2023-04-05T16:06:11.291Z,15.30
2023-04-05T16:06:21.233Z,15.28
2023-04-05T16:06:33.222Z,15.30
2023-04-05T16:06:41.356Z,15.28
2023-04-05T16:06:51.547Z,15.22
2023-04-05T16:07:01.684Z,15.16
2023-04-05T16:07:12.762Z,15.12
2023-04-05T16:07:22.527Z,15.07
2023-04-05T16:07:42.315Z,15.07
2023-04-05T16:07:52.402Z,15.09
2023-04-05T16:08:02.382Z,15.12
2023-04-05T16:08:12.575Z,15.12
2023-04-05T16:08:22.780Z,15.13
2023-04-05T16:08:32.790Z,15.15
2023-04-05T16:08:42.896Z,15.18
2023-04-05T16:08:52.915Z,15.19
2023-04-05T16:09:04.045Z,15.19
2023-04-05T16:09:13.322Z,15.20
2023-04-05T16:09:23.451Z,15.19
2023-04-05T16:09:33.533Z,15.20
2023-04-05T16:09:43.724Z,15.19
2023-04-05T16:09:55.621Z,15.19
2023-04-05T16:10:03.941Z,15.16
2023-04-05T16:10:14.298Z,15.13
2023-04-05T16:10:24.340Z,15.13
2023-04-05T16:10:34.584Z,15.12
2023-04-05T16:10:44.646Z,15.13
2023-04-05T16:11:04.009Z,15.13
2023-04-05T16:11:15.175Z,15.13
2023-04-05T16:11:25.097Z,15.15
2023-04-05T16:11:35.130Z,15.16
2023-04-05T16:11:45.337Z,15.16
2023-04-05T16:11:55.443Z,15.18
2023-04-05T16:12:05.473Z,15.18
2023-04-05T16:12:15.638Z,15.18
2023-04-05T16:12:25.776Z,15.19
2023-04-05T16:12:35.759Z,15.20
2023-04-05T16:12:45.844Z,15.20
2023-04-05T16:12:56.120Z,15.20
2023-04-05T16:13:06.189Z,15.16
2023-04-05T16:13:16.363Z,15.13
2023-04-05T16:13:26.478Z,15.11
2023-04-05T16:13:36.774Z,15.09
2023-04-05T16:13:46.854Z,15.05
2023-04-05T16:13:56.875Z,15.03
2023-04-05T16:14:07.117Z,15.01
2023-04-05T16:14:17.182Z,14.98
2023-04-05T16:14:27.134Z,14.98
2023-04-05T16:14:37.171Z,14.97
2023-04-05T16:14:47.719Z,14.94
2023-04-05T16:14:57.434Z,14.93
2023-04-05T16:15:07.793Z,14.94
2023-04-05T16:15:17.622Z,14.94
2023-04-05T16:15:29.571Z,14.98
2023-04-05T16:15:38.031Z,14.98
2023-04-05T16:15:48.223Z,15.01
2023-04-05T16:15:58.204Z,15.04
2023-04-05T16:16:08.447Z,15.04
2023-04-05T16:16:29.804Z,15.09
2023-04-05T16:16:50.327Z,15.09
2023-04-05T16:16:59.715Z,15.15
2023-04-05T16:17:05.714Z,15.18
2023-04-05T16:17:16.026Z,15.25
2023-04-05T16:17:26.083Z,15.28
2023-04-05T16:17:36.401Z,15.33
2023-04-05T16:17:46.250Z,15.35
2023-04-05T16:18:06.561Z,15.43
2023-04-05T16:18:17.430Z,15.44
2023-04-05T16:18:26.951Z,15.48
2023-04-05T16:18:37.064Z,15.49
2023-04-05T16:18:47.144Z,15.53
2023-04-05T16:18:57.166Z,15.53
2023-04-05T16:19:08.657Z,15.58
2023-04-05T16:19:17.765Z,15.62
2023-04-05T16:19:27.664Z,15.68
2023-04-05T16:19:37.763Z,15.71
2023-04-05T16:19:48.226Z,15.74
2023-04-05T16:19:58.013Z,15.77
2023-04-05T16:20:17.196Z,15.80
2023-04-05T16:20:28.507Z,15.84
2023-04-05T16:20:39.435Z,15.85
2023-04-05T16:20:48.470Z,15.89
2023-04-05T16:20:58.665Z,15.92
2023-04-05T16:21:09.053Z,15.96
2023-04-05T16:21:18.988Z,15.98
2023-04-05T16:21:29.123Z,15.99
2023-04-05T16:21:39.608Z,16.01
2023-04-05T16:21:49.853Z,16.04
2023-04-05T16:21:59.394Z,16.03
2023-04-05T16:22:09.629Z,16.06
2023-04-05T16:22:19.581Z,16.07
2023-04-05T16:22:30.864Z,16.04
2023-04-05T16:22:39.859Z,16.01
2023-04-05T16:22:50.215Z,16.04
2023-04-05T16:23:00.718Z,16.06
2023-04-05T16:23:10.253Z,16.06
2023-04-05T16:23:20.342Z,16.07
2023-04-05T16:23:40.759Z,16.10
2023-04-05T16:23:50.698Z,16.10
2023-04-05T16:24:00.846Z,16.13
2023-04-05T16:24:11.035Z,16.13
2023-04-05T16:24:21.119Z,16.17
2023-04-05T16:24:31.385Z,16.18
2023-04-05T16:24:42.522Z,16.26
2023-04-05T16:24:51.664Z,16.30
2023-04-05T16:25:01.793Z,16.33
2023-04-05T16:25:12.167Z,16.36
2023-04-05T16:25:21.955Z,16.41
2023-04-05T16:25:32.102Z,16.44
2023-04-05T16:25:42.464Z,16.44
2023-04-05T16:25:52.291Z,16.47
2023-04-05T16:26:03.634Z,16.47
2023-04-05T16:26:12.651Z,16.47
2023-04-05T16:26:22.913Z,16.48
2023-04-05T16:26:32.970Z,16.48
2023-04-05T16:26:43.873Z,16.48
2023-04-05T16:26:53.158Z,16.48
2023-04-05T16:27:13.498Z,16.45
2023-04-05T16:27:24.324Z,16.30
2023-04-05T16:27:34.307Z,16.17
2023-04-05T16:27:43.914Z,16.01
2023-04-05T16:27:53.920Z,15.92
2023-04-05T16:28:04.062Z,15.86
2023-04-05T16:28:14.123Z,15.84
2023-04-05T16:28:24.433Z,15.84
2023-04-05T16:28:34.356Z,15.80
2023-04-05T16:28:44.506Z,15.81
2023-04-05T16:28:54.715Z,15.84
2023-04-05T16:29:05.018Z,15.81
2023-04-05T16:29:15.080Z,15.84
2023-04-05T16:29:25.057Z,15.88
2023-04-05T16:29:35.334Z,15.92
2023-04-05T16:29:45.313Z,15.95
2023-04-05T16:29:55.377Z,15.98
2023-04-05T16:30:05.546Z,16.01
2023-04-05T16:30:15.629Z,15.96
2023-04-05T16:30:26.024Z,15.92
2023-04-05T16:30:35.786Z,15.93
2023-04-05T16:30:47.889Z,15.92
2023-04-05T16:30:56.040Z,15.92
2023-04-05T16:31:06.350Z,15.91
2023-04-05T16:31:16.412Z,15.89
2023-04-05T16:31:26.463Z,15.76
2023-04-05T16:31:36.854Z,15.73
2023-04-05T16:31:46.773Z,15.70
2023-04-05T16:31:57.974Z,15.66
2023-04-05T16:32:06.957Z,15.66
2023-04-05T16:32:17.139Z,15.62
2023-04-05T16:32:27.343Z,15.62
2023-04-05T16:32:38.280Z,15.60
2023-04-05T16:32:47.506Z,15.59
2023-04-05T16:33:08.512Z,15.59
2023-04-05T16:33:17.795Z,15.55
2023-04-05T16:33:27.870Z,15.52
2023-04-05T16:33:38.052Z,15.51
2023-04-05T16:33:48.923Z,15.44
2023-04-05T16:33:58.249Z,15.43
2023-04-05T16:34:18.412Z,15.41
2023-04-05T16:34:28.694Z,15.38
2023-04-05T16:34:38.776Z,15.34
2023-04-05T16:34:49.523Z,15.33
2023-04-05T16:34:58.945Z,15.31
2023-04-05T16:35:10.089Z,15.30
2023-04-05T16:35:19.218Z,15.27
2023-04-05T16:35:29.366Z,15.23
2023-04-05T16:35:40.150Z,15.23
2023-04-05T16:35:49.555Z,15.22
2023-04-05T16:35:59.687Z,15.22
2023-04-05T16:36:20.023Z,15.25
2023-04-05T16:36:30.836Z,15.25
2023-04-05T16:36:40.222Z,15.23
2023-04-05T16:36:50.362Z,15.22
2023-04-05T16:37:00.375Z,15.19
2023-04-05T16:37:10.707Z,15.16
2023-04-05T16:37:20.671Z,15.15
2023-04-05T16:37:40.636Z,14.97
2023-04-05T16:37:51.070Z,14.93
2023-04-05T16:38:02.010Z,14.87
2023-04-05T16:38:11.242Z,14.85
2023-04-05T16:38:21.270Z,14.82
2023-04-05T16:38:31.459Z,14.80
2023-04-05T16:38:41.603Z,14.78
2023-04-05T16:38:51.834Z,14.75
2023-04-05T16:39:02.231Z,14.75
2023-04-05T16:39:12.162Z,14.75
2023-04-05T16:39:22.189Z,14.78
2023-04-05T16:39:32.229Z,14.78
2023-04-05T16:39:42.217Z,14.79
2023-04-05T16:39:52.533Z,14.79
2023-04-05T16:40:02.602Z,14.80
2023-04-05T16:40:12.725Z,14.82
2023-04-05T16:40:22.828Z,14.82
2023-04-05T16:40:33.953Z,14.85
2023-04-05T16:40:43.076Z,14.85
2023-04-05T16:40:53.206Z,14.85
2023-04-05T16:41:03.547Z,14.86
2023-04-05T16:41:14.377Z,14.86
2023-04-05T16:41:23.578Z,14.87
2023-04-05T16:41:44.423Z,14.87
2023-04-05T16:41:54.316Z,14.90
2023-04-05T16:42:04.009Z,14.91
2023-04-05T16:42:14.248Z,14.93
2023-04-05T16:42:24.435Z,14.93
2023-04-05T16:42:34.637Z,14.94
2023-04-05T16:42:45.472Z,14.94
2023-04-05T16:42:54.586Z,14.91
2023-04-05T16:43:04.920Z,14.91
2023-04-05T16:43:15.019Z,14.91
2023-04-05T16:43:25.201Z,14.93
2023-04-05T16:43:35.220Z,14.94
2023-04-05T16:43:45.922Z,14.93
2023-04-05T16:43:55.541Z,14.94
2023-04-05T16:44:05.735Z,14.95
2023-04-05T16:44:15.846Z,14.95
2023-04-05T16:44:25.984Z,14.95
2023-04-05T16:44:35.892Z,14.95
2023-04-05T16:44:46.910Z,14.95
2023-04-05T16:44:56.346Z,14.97
2023-04-05T16:45:06.345Z,14.97
2023-04-05T16:45:16.415Z,14.94
2023-04-05T16:45:26.544Z,14.97
2023-04-05T16:45:36.696Z,14.97
2023-04-05T16:45:57.079Z,15.00
2023-04-05T16:46:07.100Z,15.04
2023-04-05T16:46:18.074Z,14.98
2023-04-05T16:46:27.389Z,14.95
2023-04-05T16:46:37.549Z,14.95
2023-04-05T16:46:48.440Z,14.95
2023-04-05T16:46:57.653Z,14.97
2023-04-05T16:47:07.747Z,14.94
2023-04-05T16:47:27.957Z,14.95
2023-04-05T16:47:38.323Z,14.97
2023-04-05T16:47:48.189Z,14.95
2023-04-05T16:47:58.416Z,14.98
2023-04-05T16:48:08.537Z,15.00
2023-04-05T16:48:18.601Z,15.01
2023-04-05T16:48:28.738Z,15.04
2023-04-05T16:48:38.841Z,15.04
2023-04-05T16:48:48.987Z,15.05
2023-04-05T16:49:00.183Z,15.07
2023-04-05T16:49:09.237Z,15.05
2023-04-05T16:49:19.370Z,15.04
2023-04-05T16:49:29.599Z,15.03
2023-04-05T16:49:39.706Z,14.98
2023-04-05T16:49:49.901Z,14.95
2023-04-05T16:50:01.708Z,14.91
2023-04-05T16:50:10.015Z,14.85
2023-04-05T16:50:20.188Z,14.82
2023-04-05T16:50:30.243Z,14.79
2023-04-05T16:50:40.459Z,14.75
2023-04-05T16:50:50.614Z,14.69
2023-04-05T16:51:11.824Z,14.60
2023-04-05T16:51:23.112Z,14.52
2023-04-05T16:51:31.152Z,14.45
2023-04-05T16:51:41.236Z,14.42
2023-04-05T16:51:51.355Z,14.41
2023-04-05T16:52:01.517Z,14.39
2023-04-05T16:52:22.059Z,14.39
2023-04-05T16:52:32.039Z,14.38
2023-04-05T16:52:42.275Z,14.36
2023-04-05T16:52:52.380Z,14.36
2023-04-05T16:53:02.440Z,14.35
2023-04-05T16:53:13.351Z,14.35
2023-04-05T16:53:22.584Z,14.31
2023-04-05T16:53:32.773Z,14.34
2023-04-05T16:53:42.967Z,14.34
2023-04-05T16:53:53.041Z,14.31
2023-04-05T16:54:03.211Z,14.30
2023-04-05T16:54:24.520Z,14.29
2023-04-05T16:54:33.509Z,14.27
2023-04-05T16:54:43.748Z,14.26
2023-04-05T16:54:53.779Z,14.27
2023-04-05T16:55:03.930Z,14.26
2023-04-05T16:55:14.021Z,14.23
2023-04-05T16:55:35.309Z,14.12
2023-04-05T16:55:44.453Z,14.08
2023-04-05T16:55:54.745Z,14.02
2023-04-05T16:56:05.452Z,13.96
2023-04-05T16:56:14.780Z,13.91
2023-04-05T16:56:24.975Z,13.88
2023-04-05T16:56:44.191Z,13.87
2023-04-05T16:56:55.546Z,13.87
2023-04-05T16:57:06.196Z,13.88
2023-04-05T16:57:15.763Z,13.91
2023-04-05T16:57:25.718Z,13.94
2023-04-05T16:57:35.933Z,13.96
2023-04-05T16:57:46.105Z,13.94
2023-04-05T16:57:56.369Z,13.96
2023-04-05T16:58:06.085Z,13.94
2023-04-05T16:58:16.319Z,13.94
2023-04-05T16:58:26.303Z,13.94
2023-04-05T16:58:36.497Z,13.93
2023-04-05T16:58:46.608Z,13.88
2023-04-05T16:58:56.830Z,13.83
2023-04-05T16:59:07.930Z,13.80
2023-04-05T16:59:17.045Z,13.76
2023-04-05T16:59:27.193Z,13.69
2023-04-05T16:59:37.345Z,13.66
2023-04-05T16:59:47.553Z,13.65
2023-04-05T16:59:57.676Z,13.59
2023-04-05T17:00:07.996Z,13.54
2023-04-05T17:00:17.726Z,13.55
2023-04-05T17:00:27.852Z,13.61
2023-04-05T17:00:37.993Z,13.62
2023-04-05T17:00:48.214Z,13.62
2023-04-05T17:00:58.241Z,13.65
2023-04-05T17:01:08.393Z,13.65
2023-04-05T17:01:18.588Z,13.69
2023-04-05T17:01:29.194Z,13.71
2023-04-05T17:01:38.915Z,13.75
2023-04-05T17:01:48.940Z,13.80
2023-04-05T17:01:59.137Z,13.83
2023-04-05T17:02:09.163Z,13.87
2023-04-05T17:02:19.257Z,13.87
